createdAt,value
2022-10-04T00:00:14.845Z,1015.63
2022-10-04T00:01:14.830Z,1015.60
2022-10-04T00:02:14.853Z,1015.66
2022-10-04T00:03:14.857Z,1015.64
2022-10-04T00:04:14.789Z,1015.64
2022-10-04T00:05:14.772Z,1015.66
2022-10-04T00:06:14.765Z,1015.65
2022-10-04T00:07:14.774Z,1015.67
2022-10-04T00:08:14.740Z,1015.74
2022-10-04T00:09:14.731Z,1015.69
2022-10-04T00:10:14.713Z,1015.72
2022-10-04T00:11:14.717Z,1015.77
2022-10-04T00:12:14.819Z,1015.76
2022-10-04T00:13:14.692Z,1015.70
2022-10-04T00:14:14.677Z,1015.73
2022-10-04T00:15:14.667Z,1015.72
2022-10-04T00:16:14.710Z,1015.74
2022-10-04T00:17:14.665Z,1015.73
2022-10-04T00:18:14.641Z,1015.73
2022-10-04T00:19:14.626Z,1015.66
2022-10-04T00:20:14.626Z,1015.66
2022-10-04T00:21:14.610Z,1015.70
2022-10-04T00:22:14.601Z,1015.71
2022-10-04T00:23:14.599Z,1015.69
2022-10-04T00:24:14.575Z,1015.68
2022-10-04T00:25:14.565Z,1015.70
2022-10-04T00:26:14.572Z,1015.72
2022-10-04T00:27:14.535Z,1015.76
2022-10-04T00:28:14.622Z,1015.70
2022-10-04T00:29:14.532Z,1015.73
2022-10-04T00:30:14.505Z,1015.70
2022-10-04T00:31:14.614Z,1015.70
2022-10-04T00:32:14.481Z,1015.71
2022-10-04T00:33:14.469Z,1015.74
2022-10-04T00:34:14.500Z,1015.71
2022-10-04T00:35:14.447Z,1015.77
2022-10-04T00:36:14.440Z,1015.70
2022-10-04T00:37:14.464Z,1015.72
2022-10-04T00:38:14.421Z,1015.69
2022-10-04T00:39:14.414Z,1015.71
2022-10-04T00:40:14.410Z,1015.69
2022-10-04T00:41:14.382Z,1015.77
2022-10-04T00:42:14.378Z,1015.73
2022-10-04T00:43:14.361Z,1015.76
2022-10-04T00:44:14.351Z,1015.72
2022-10-04T00:45:14.354Z,1015.77
2022-10-04T00:46:14.395Z,1015.77
2022-10-04T00:47:14.321Z,1015.80
2022-10-04T00:48:14.308Z,1015.75
2022-10-04T00:49:14.379Z,1015.75
2022-10-04T00:50:14.361Z,1015.76
2022-10-04T00:51:14.298Z,1015.70
2022-10-04T00:52:14.262Z,1015.70
2022-10-04T00:53:14.256Z,1015.65
2022-10-04T00:54:14.252Z,1015.69
2022-10-04T00:55:14.251Z,1015.67
2022-10-04T00:56:14.222Z,1015.67
2022-10-04T00:57:14.212Z,1015.62
2022-10-04T00:58:14.198Z,1015.66
2022-10-04T00:59:14.184Z,1015.62
2022-10-04T01:00:14.197Z,1015.62
2022-10-04T01:01:14.248Z,1015.68
2022-10-04T01:02:14.198Z,1015.67
2022-10-04T01:03:14.150Z,1015.69
2022-10-04T01:04:14.146Z,1015.65
2022-10-04T01:05:14.129Z,1015.62
2022-10-04T01:06:14.127Z,1015.68
2022-10-04T01:07:14.118Z,1015.66
2022-10-04T01:08:14.096Z,1015.64
2022-10-04T01:09:14.088Z,1015.63
2022-10-04T01:10:14.070Z,1015.67
2022-10-04T01:11:14.061Z,1015.63
2022-10-04T01:12:14.066Z,1015.64
2022-10-04T01:13:14.038Z,1015.63
2022-10-04T01:14:14.033Z,1015.60
2022-10-04T01:15:14.016Z,1015.53
2022-10-04T01:16:14.054Z,1015.62
2022-10-04T01:17:13.993Z,1015.58
2022-10-04T01:18:14.008Z,1015.57
2022-10-04T01:19:13.981Z,1015.56
2022-10-04T01:20:13.969Z,1015.56
2022-10-04T01:21:14.005Z,1015.56
2022-10-04T01:22:13.972Z,1015.57
2022-10-04T01:23:13.932Z,1015.57
2022-10-04T01:24:13.936Z,1015.59
2022-10-04T01:25:13.909Z,1015.57
2022-10-04T01:26:13.898Z,1015.54
2022-10-04T01:27:13.907Z,1015.54
2022-10-04T01:28:13.901Z,1015.53
2022-10-04T01:29:13.873Z,1015.56
2022-10-04T01:30:13.859Z,1015.53
2022-10-04T01:31:13.889Z,1015.55
2022-10-04T01:32:13.833Z,1015.54
2022-10-04T01:33:13.849Z,1015.56
2022-10-04T01:34:13.810Z,1015.57
2022-10-04T01:35:13.806Z,1015.58
2022-10-04T01:36:13.804Z,1015.56
2022-10-04T01:37:13.797Z,1015.59
2022-10-04T01:38:13.776Z,1015.52
2022-10-04T01:39:13.768Z,1015.53
2022-10-04T01:40:13.750Z,1015.51
2022-10-04T01:41:13.747Z,1015.50
2022-10-04T01:42:13.722Z,1015.49
2022-10-04T01:43:13.739Z,1015.48
2022-10-04T01:44:13.700Z,1015.50
2022-10-04T01:45:13.691Z,1015.52
2022-10-04T01:46:13.750Z,1015.48
2022-10-04T01:47:13.707Z,1015.48
2022-10-04T01:48:13.664Z,1015.49
2022-10-04T01:49:13.700Z,1015.50
2022-10-04T01:50:15.921Z,1015.48
2022-10-04T01:51:13.628Z,1015.52
2022-10-04T01:52:13.619Z,1015.52
2022-10-04T01:53:13.626Z,1015.49
2022-10-04T01:54:13.601Z,1015.51
2022-10-04T01:55:13.589Z,1015.48
2022-10-04T01:56:13.586Z,1015.49
2022-10-04T01:57:13.597Z,1015.45
2022-10-04T01:58:13.558Z,1015.50
2022-10-04T01:59:13.539Z,1015.51
2022-10-04T02:00:13.529Z,1015.47
2022-10-04T02:01:13.574Z,1015.48
2022-10-04T02:02:13.517Z,1015.41
2022-10-04T02:03:13.565Z,1015.40
2022-10-04T02:04:15.458Z,1015.40
2022-10-04T02:05:13.497Z,1015.39
2022-10-04T02:06:13.472Z,1015.39
2022-10-04T02:07:13.464Z,1015.38
2022-10-04T02:08:13.448Z,1015.37
2022-10-04T02:09:13.430Z,1015.33
2022-10-04T02:10:13.957Z,1015.32
2022-10-04T02:11:13.411Z,1015.33
2022-10-04T02:12:13.407Z,1015.33
2022-10-04T02:13:13.388Z,1015.31
2022-10-04T02:14:13.396Z,1015.29
2022-10-04T02:15:13.369Z,1015.26
2022-10-04T02:16:13.434Z,1015.26
2022-10-04T02:17:13.343Z,1015.30
2022-10-04T02:18:13.357Z,1015.29
2022-10-04T02:19:13.320Z,1015.31
2022-10-04T02:20:13.312Z,1015.31
2022-10-04T02:21:13.297Z,1015.31
2022-10-04T02:22:13.323Z,1015.30
2022-10-04T02:23:13.286Z,1015.34
2022-10-04T02:24:13.275Z,1015.41
2022-10-04T02:25:13.261Z,1015.34
2022-10-04T02:26:13.261Z,1015.36
2022-10-04T02:27:13.250Z,1015.37
2022-10-04T02:28:13.308Z,1015.35
2022-10-04T02:29:13.222Z,1015.39
2022-10-04T02:30:13.218Z,1015.36
2022-10-04T02:31:13.246Z,1015.40
2022-10-04T02:32:13.195Z,1015.40
2022-10-04T02:33:13.192Z,1015.39
2022-10-04T02:34:13.158Z,1015.39
2022-10-04T02:35:13.156Z,1015.37
2022-10-04T02:36:13.161Z,1015.37
2022-10-04T02:37:13.128Z,1015.35
2022-10-04T02:38:13.119Z,1015.33
2022-10-04T02:39:13.151Z,1015.33
2022-10-04T02:40:13.111Z,1015.34
2022-10-04T02:41:13.093Z,1015.37
2022-10-04T02:42:13.107Z,1015.33
2022-10-04T02:43:13.075Z,1015.35
2022-10-04T02:44:13.064Z,1015.33
2022-10-04T02:45:13.048Z,1015.33
2022-10-04T02:46:13.075Z,1015.32
2022-10-04T02:47:13.030Z,1015.25
2022-10-04T02:48:13.032Z,1015.27
2022-10-04T02:49:13.012Z,1015.25
2022-10-04T02:50:12.995Z,1015.27
2022-10-04T02:51:12.986Z,1015.22
2022-10-04T02:52:12.968Z,1015.24
2022-10-04T02:53:12.976Z,1015.25
2022-10-04T02:54:12.958Z,1015.26
2022-10-04T02:55:12.934Z,1015.23
2022-10-04T02:56:12.933Z,1015.30
2022-10-04T02:57:12.920Z,1015.28
2022-10-04T02:58:12.912Z,1015.25
2022-10-04T02:59:12.926Z,1015.22
2022-10-04T03:00:12.894Z,1015.18
2022-10-04T03:01:12.912Z,1015.20
2022-10-04T03:02:12.922Z,1015.17
2022-10-04T03:03:12.869Z,1015.20
2022-10-04T03:04:12.843Z,1015.22
2022-10-04T03:05:12.852Z,1015.21
2022-10-04T03:06:12.811Z,1015.27
2022-10-04T03:07:12.799Z,1015.29
2022-10-04T03:08:12.789Z,1015.29
2022-10-04T03:09:12.784Z,1015.31
2022-10-04T03:10:12.782Z,1015.28
2022-10-04T03:11:12.759Z,1015.29
2022-10-04T03:12:12.757Z,1015.28
2022-10-04T03:13:12.746Z,1015.27
2022-10-04T03:14:12.739Z,1015.33
2022-10-04T03:15:12.738Z,1015.28
2022-10-04T03:16:12.757Z,1015.24
2022-10-04T03:17:12.697Z,1015.23
2022-10-04T03:18:12.687Z,1015.22
2022-10-04T03:19:12.679Z,1015.22
2022-10-04T03:20:12.667Z,1015.24
2022-10-04T03:21:12.675Z,1015.28
2022-10-04T03:22:12.638Z,1015.22
2022-10-04T03:23:12.627Z,1015.24
2022-10-04T03:24:12.626Z,1015.28
2022-10-04T03:25:12.635Z,1015.27
2022-10-04T03:26:12.614Z,1015.25
2022-10-04T03:27:12.586Z,1015.28
2022-10-04T03:28:12.648Z,1015.32
2022-10-04T03:29:12.569Z,1015.32
2022-10-04T03:30:12.561Z,1015.32
2022-10-04T03:31:12.604Z,1015.32
2022-10-04T03:32:12.559Z,1015.34
2022-10-04T03:33:12.531Z,1015.30
2022-10-04T03:34:12.522Z,1015.32
2022-10-04T03:35:12.502Z,1015.28
2022-10-04T03:36:12.496Z,1015.29
2022-10-04T03:37:12.496Z,1015.29
2022-10-04T03:38:12.478Z,1015.27
2022-10-04T03:39:12.459Z,1015.27
2022-10-04T03:40:12.446Z,1015.27
2022-10-04T03:41:12.445Z,1015.24
2022-10-04T03:42:12.465Z,1015.25
2022-10-04T03:43:12.414Z,1015.29
2022-10-04T03:44:12.403Z,1015.27
2022-10-04T03:45:12.393Z,1015.29
2022-10-04T03:46:12.506Z,1015.28
2022-10-04T03:47:12.369Z,1015.28
2022-10-04T03:48:12.367Z,1015.27
2022-10-04T03:49:12.342Z,1015.27
2022-10-04T03:50:12.345Z,1015.30
2022-10-04T03:51:21.826Z,1015.29
2022-10-04T03:52:12.331Z,1015.34
2022-10-04T03:53:12.830Z,1015.28
2022-10-04T03:54:12.295Z,1015.32
2022-10-04T03:55:12.282Z,1015.31
2022-10-04T03:56:12.272Z,1015.30
2022-10-04T03:57:12.259Z,1015.36
2022-10-04T03:58:12.250Z,1015.31
2022-10-04T03:59:12.237Z,1015.34
2022-10-04T04:00:12.217Z,1015.35
2022-10-04T04:01:12.308Z,1015.34
2022-10-04T04:02:12.284Z,1015.30
2022-10-04T04:03:12.385Z,1015.28
2022-10-04T04:04:12.177Z,1015.33
2022-10-04T04:05:12.166Z,1015.30
2022-10-04T04:06:12.177Z,1015.33
2022-10-04T04:07:12.150Z,1015.30
2022-10-04T04:08:12.142Z,1015.30
2022-10-04T04:09:12.146Z,1015.33
2022-10-04T04:10:16.586Z,1015.33
2022-10-04T04:11:12.104Z,1015.35
2022-10-04T04:12:12.109Z,1015.39
2022-10-04T04:13:12.083Z,1015.38
2022-10-04T04:14:12.072Z,1015.40
2022-10-04T04:15:12.069Z,1015.36
2022-10-04T04:16:12.118Z,1015.41
2022-10-04T04:17:12.045Z,1015.37
2022-10-04T04:18:12.043Z,1015.40
2022-10-04T04:19:12.020Z,1015.41
2022-10-04T04:20:12.025Z,1015.41
2022-10-04T04:21:12.007Z,1015.39
2022-10-04T04:22:11.980Z,1015.44
2022-10-04T04:23:11.977Z,1015.42
2022-10-04T04:24:11.972Z,1015.42
2022-10-04T04:25:11.956Z,1015.43
2022-10-04T04:26:11.946Z,1015.39
2022-10-04T04:27:11.934Z,1015.44
2022-10-04T04:28:11.978Z,1015.41
2022-10-04T04:29:11.909Z,1015.40
2022-10-04T04:30:11.894Z,1015.41
2022-10-04T04:31:11.948Z,1015.40
2022-10-04T04:32:11.981Z,1015.38
2022-10-04T04:33:11.873Z,1015.41
2022-10-04T04:34:11.878Z,1015.45
2022-10-04T04:35:11.845Z,1015.44
2022-10-04T04:36:11.856Z,1015.43
2022-10-04T04:37:11.825Z,1015.35
2022-10-04T04:38:11.814Z,1015.37
2022-10-04T04:39:11.794Z,1015.38
2022-10-04T04:40:11.783Z,1015.37
2022-10-04T04:41:11.780Z,1015.36
2022-10-04T04:42:11.771Z,1015.36
2022-10-04T04:43:11.755Z,1015.39
2022-10-04T04:44:11.747Z,1015.41
2022-10-04T04:45:11.738Z,1015.40
2022-10-04T04:46:28.266Z,1015.43
2022-10-04T04:47:17.545Z,1015.40
2022-10-04T04:48:12.702Z,1015.41
2022-10-04T04:49:11.687Z,1015.45
2022-10-04T04:50:11.704Z,1015.43
2022-10-04T04:51:11.672Z,1015.45
2022-10-04T04:52:11.674Z,1015.46
2022-10-04T04:53:11.663Z,1015.43
2022-10-04T04:54:11.639Z,1015.46
2022-10-04T04:55:11.621Z,1015.50
2022-10-04T04:56:15.196Z,1015.46
2022-10-04T04:57:12.639Z,1015.47
2022-10-04T04:58:11.603Z,1015.44
2022-10-04T04:59:11.582Z,1015.46
2022-10-04T05:00:11.575Z,1015.42
2022-10-04T05:01:11.577Z,1015.43
2022-10-04T05:02:11.621Z,1015.46
2022-10-04T05:03:11.534Z,1015.44
2022-10-04T05:04:11.546Z,1015.44
2022-10-04T05:05:11.515Z,1015.48
2022-10-04T05:06:11.522Z,1015.44
2022-10-04T05:07:11.497Z,1015.45
2022-10-04T05:08:11.480Z,1015.46
2022-10-04T05:09:11.481Z,1015.46
2022-10-04T05:10:11.455Z,1015.45
2022-10-04T05:11:11.454Z,1015.48
2022-10-04T05:12:11.435Z,1015.46
2022-10-04T05:13:11.431Z,1015.46
2022-10-04T05:14:11.427Z,1015.45
2022-10-04T05:15:11.418Z,1015.44
2022-10-04T05:16:11.505Z,1015.43
2022-10-04T05:17:11.389Z,1015.45
2022-10-04T05:18:11.377Z,1015.47
2022-10-04T05:19:11.363Z,1015.48
2022-10-04T05:20:11.359Z,1015.50
2022-10-04T05:21:11.336Z,1015.47
2022-10-04T05:22:11.342Z,1015.49
2022-10-04T05:23:11.323Z,1015.46
2022-10-04T05:24:11.416Z,1015.48
2022-10-04T05:25:11.407Z,1015.52
2022-10-04T05:26:11.305Z,1015.47
2022-10-04T05:27:11.270Z,1015.51
2022-10-04T05:28:11.325Z,1015.51
2022-10-04T05:29:11.249Z,1015.53
2022-10-04T05:30:11.250Z,1015.55
2022-10-04T05:31:11.239Z,1015.50
2022-10-04T05:32:11.322Z,1015.54
2022-10-04T05:33:11.217Z,1015.55
2022-10-04T05:34:11.197Z,1015.58
2022-10-04T05:35:11.190Z,1015.53
2022-10-04T05:36:11.191Z,1015.56
2022-10-04T05:37:11.170Z,1015.59
2022-10-04T05:38:11.164Z,1015.59
2022-10-04T05:39:11.146Z,1015.57
2022-10-04T05:40:11.131Z,1015.55
2022-10-04T05:41:11.157Z,1015.56
2022-10-04T05:42:11.105Z,1015.51
2022-10-04T05:43:11.096Z,1015.58
2022-10-04T05:44:11.085Z,1015.59
2022-10-04T05:45:11.078Z,1015.56
2022-10-04T05:46:11.117Z,1015.54
2022-10-04T05:47:11.075Z,1015.56
2022-10-04T05:48:11.050Z,1015.57
2022-10-04T05:49:14.351Z,1015.56
2022-10-04T05:50:12.029Z,1015.62
2022-10-04T05:51:11.011Z,1015.64
2022-10-04T05:52:11.020Z,1015.65
2022-10-04T05:53:10.987Z,1015.68
2022-10-04T05:54:11.092Z,1015.70
2022-10-04T05:55:10.976Z,1015.69
2022-10-04T05:56:10.955Z,1015.73
2022-10-04T05:57:10.950Z,1015.73
2022-10-04T05:58:10.941Z,1015.72
2022-10-04T05:59:10.933Z,1015.73
2022-10-04T06:00:10.930Z,1015.73
2022-10-04T06:01:10.947Z,1015.77
2022-10-04T06:02:10.915Z,1015.76
2022-10-04T06:03:10.893Z,1015.74
2022-10-04T06:04:10.896Z,1015.75
2022-10-04T06:05:10.876Z,1015.73
2022-10-04T06:06:10.856Z,1015.75
2022-10-04T06:07:10.842Z,1015.73
2022-10-04T06:08:10.835Z,1015.73
2022-10-04T06:09:10.838Z,1015.73
2022-10-04T06:10:10.819Z,1015.70
2022-10-04T06:11:10.801Z,1015.69
2022-10-04T06:12:10.781Z,1015.72
2022-10-04T06:13:10.781Z,1015.74
2022-10-04T06:14:10.777Z,1015.72
2022-10-04T06:15:10.773Z,1015.76
2022-10-04T06:16:10.739Z,1015.74
2022-10-04T06:17:10.734Z,1015.74
2022-10-04T06:18:10.722Z,1015.70
2022-10-04T06:19:10.714Z,1015.71
2022-10-04T06:20:10.739Z,1015.71
2022-10-04T06:21:10.692Z,1015.74
2022-10-04T06:22:10.681Z,1015.69
2022-10-04T06:23:10.662Z,1015.73
2022-10-04T06:24:10.660Z,1015.69
2022-10-04T06:25:10.642Z,1015.76
2022-10-04T06:26:10.667Z,1015.76
2022-10-04T06:27:10.631Z,1015.79
2022-10-04T06:28:10.644Z,1015.75
2022-10-04T06:29:10.614Z,1015.78
2022-10-04T06:30:10.588Z,1015.78
2022-10-04T06:31:10.630Z,1015.77
2022-10-04T06:32:10.580Z,1015.77
2022-10-04T06:33:10.554Z,1015.81
2022-10-04T06:34:10.620Z,1015.82
2022-10-04T06:35:10.541Z,1015.88
2022-10-04T06:36:10.543Z,1015.85
2022-10-04T06:37:10.512Z,1015.84
2022-10-04T06:38:10.514Z,1015.83
2022-10-04T06:39:10.493Z,1015.85
2022-10-04T06:40:10.481Z,1015.87
2022-10-04T06:41:10.481Z,1015.90
2022-10-04T06:42:10.481Z,1015.89
2022-10-04T06:43:10.449Z,1015.88
2022-10-04T06:44:10.453Z,1015.83
2022-10-04T06:45:10.435Z,1015.86
2022-10-04T06:46:10.510Z,1015.84
2022-10-04T06:47:10.425Z,1015.86
2022-10-04T06:48:10.392Z,1015.86
2022-10-04T06:49:10.399Z,1015.86
2022-10-04T06:50:10.396Z,1015.85
2022-10-04T06:51:10.368Z,1015.89
2022-10-04T06:52:10.355Z,1015.92
2022-10-04T06:53:10.369Z,1015.95
2022-10-04T06:54:10.335Z,1015.94
2022-10-04T06:55:10.328Z,1016.00
2022-10-04T06:56:10.306Z,1015.96
2022-10-04T06:57:10.301Z,1015.99
2022-10-04T06:58:10.298Z,1016.02
2022-10-04T06:59:10.286Z,1016.04
2022-10-04T07:00:10.289Z,1016.04
2022-10-04T07:01:10.346Z,1016.03
2022-10-04T07:02:10.343Z,1016.05
2022-10-04T07:03:10.232Z,1016.04
2022-10-04T07:04:10.220Z,1016.03
2022-10-04T07:05:10.244Z,1016.03
2022-10-04T07:06:10.223Z,1016.00
2022-10-04T07:07:10.189Z,1016.06
2022-10-04T07:08:10.183Z,1016.07
2022-10-04T07:09:10.182Z,1016.07
2022-10-04T07:10:10.164Z,1016.06
2022-10-04T07:11:12.429Z,1016.04
2022-10-04T07:12:10.159Z,1016.07
2022-10-04T07:13:10.150Z,1016.09
2022-10-04T07:14:10.165Z,1016.09
2022-10-04T07:15:10.904Z,1016.14
2022-10-04T07:16:10.153Z,1016.09
2022-10-04T07:17:10.429Z,1016.11
2022-10-04T07:18:10.077Z,1016.12
2022-10-04T07:19:10.063Z,1016.13
2022-10-04T07:20:10.056Z,1016.14
2022-10-04T07:21:10.041Z,1016.10
2022-10-04T07:22:10.033Z,1016.11
2022-10-04T07:23:10.047Z,1016.10
2022-10-04T07:24:10.017Z,1016.12
2022-10-04T07:25:10.023Z,1016.11
2022-10-04T07:26:09.989Z,1016.13
2022-10-04T07:27:09.977Z,1016.13
2022-10-04T07:28:10.965Z,1016.18
2022-10-04T07:29:10.429Z,1016.18
2022-10-04T07:30:10.110Z,1016.20
2022-10-04T07:31:10.029Z,1016.22
2022-10-04T07:32:09.978Z,1016.26
2022-10-04T07:33:09.931Z,1016.25
2022-10-04T07:34:09.953Z,1016.27
2022-10-04T07:35:10.871Z,1016.26
2022-10-04T07:36:09.883Z,1016.21
2022-10-04T07:37:09.869Z,1016.24
2022-10-04T07:38:09.857Z,1016.22
2022-10-04T07:39:09.846Z,1016.26
2022-10-04T07:40:09.849Z,1016.24
2022-10-04T07:41:09.834Z,1016.23
2022-10-04T07:42:09.813Z,1016.28
2022-10-04T07:43:09.817Z,1016.25
2022-10-04T07:44:09.890Z,1016.35
2022-10-04T07:45:09.789Z,1016.30
2022-10-04T07:46:09.872Z,1016.33
2022-10-04T07:47:09.764Z,1016.26
2022-10-04T07:48:12.420Z,1016.31
2022-10-04T07:49:09.738Z,1016.33
2022-10-04T07:50:09.751Z,1016.34
2022-10-04T07:51:09.711Z,1016.38
2022-10-04T07:52:09.700Z,1016.38
2022-10-04T07:53:09.922Z,1016.38
2022-10-04T07:54:09.686Z,1016.41
2022-10-04T07:55:09.676Z,1016.39
2022-10-04T07:56:09.669Z,1016.35
2022-10-04T07:57:09.647Z,1016.38
2022-10-04T07:58:09.642Z,1016.41
2022-10-04T07:59:09.623Z,1016.35
2022-10-04T08:00:09.622Z,1016.34
2022-10-04T08:01:09.654Z,1016.40
2022-10-04T08:02:09.813Z,1016.39
2022-10-04T08:03:09.649Z,1016.42
2022-10-04T08:04:09.651Z,1016.44
2022-10-04T08:05:09.598Z,1016.44
2022-10-04T08:06:09.557Z,1016.48
2022-10-04T08:07:09.575Z,1016.47
2022-10-04T08:08:09.562Z,1016.45
2022-10-04T08:09:09.561Z,1016.46
2022-10-04T08:10:09.514Z,1016.44
2022-10-04T08:11:09.508Z,1016.47
2022-10-04T08:12:09.484Z,1016.48
2022-10-04T08:13:09.492Z,1016.51
2022-10-04T08:14:09.461Z,1016.53
2022-10-04T08:15:09.492Z,1016.58
2022-10-04T08:16:09.524Z,1016.61
2022-10-04T08:17:15.218Z,1016.57
2022-10-04T08:18:10.450Z,1016.59
2022-10-04T08:19:09.404Z,1016.60
2022-10-04T08:20:09.397Z,1016.60
2022-10-04T08:21:09.414Z,1016.59
2022-10-04T08:22:09.395Z,1016.59
2022-10-04T08:23:09.367Z,1016.58
2022-10-04T08:24:09.408Z,1016.60
2022-10-04T08:25:09.358Z,1016.58
2022-10-04T08:26:09.337Z,1016.58
2022-10-04T08:27:09.322Z,1016.58
2022-10-04T08:28:09.382Z,1016.59
2022-10-04T08:29:09.323Z,1016.66
2022-10-04T08:30:09.290Z,1016.63
2022-10-04T08:31:09.381Z,1016.65
2022-10-04T08:32:09.267Z,1016.62
2022-10-04T08:33:09.267Z,1016.63
2022-10-04T08:34:09.298Z,1016.62
2022-10-04T08:35:09.254Z,1016.66
2022-10-04T08:36:09.228Z,1016.60
2022-10-04T08:37:09.212Z,1016.68
2022-10-04T08:38:09.210Z,1016.69
2022-10-04T08:39:09.204Z,1016.62
2022-10-04T08:40:12.847Z,1016.67
2022-10-04T08:41:09.180Z,1016.65
2022-10-04T08:42:09.161Z,1016.65
2022-10-04T08:43:09.145Z,1016.62
2022-10-04T08:44:09.151Z,1016.78
2022-10-04T08:45:09.148Z,1016.63
2022-10-04T08:46:09.185Z,1016.68
2022-10-04T08:47:09.108Z,1016.69
2022-10-04T08:48:09.111Z,1016.65
2022-10-04T08:49:09.088Z,1016.66
2022-10-04T08:50:09.087Z,1016.69
2022-10-04T08:51:09.066Z,1016.70
2022-10-04T08:52:09.048Z,1016.75
2022-10-04T08:53:11.119Z,1016.73
2022-10-04T08:54:09.138Z,1016.67
2022-10-04T08:55:09.024Z,1016.71
2022-10-04T08:56:09.029Z,1016.73
2022-10-04T08:57:13.494Z,1016.62
2022-10-04T08:58:09.007Z,1016.72
2022-10-04T08:59:08.983Z,1016.65
2022-10-04T09:00:08.968Z,1016.74
2022-10-04T09:01:09.034Z,1016.60
2022-10-04T09:02:08.958Z,1016.65
2022-10-04T09:03:08.977Z,1016.61
2022-10-04T09:04:08.938Z,1016.63
2022-10-04T09:05:08.911Z,1016.59
2022-10-04T09:06:08.926Z,1016.72
2022-10-04T09:07:08.910Z,1016.60
2022-10-04T09:08:08.877Z,1016.63
2022-10-04T09:09:08.878Z,1016.62
2022-10-04T09:10:08.870Z,1016.62
2022-10-04T09:11:08.858Z,1016.70
2022-10-04T09:12:08.834Z,1016.66
2022-10-04T09:13:08.831Z,1016.69
2022-10-04T09:14:08.839Z,1016.54
2022-10-04T09:15:08.806Z,1016.61
2022-10-04T09:16:08.860Z,1016.61
2022-10-04T09:17:08.790Z,1016.60
2022-10-04T09:18:08.776Z,1016.59
2022-10-04T09:19:08.766Z,1016.62
2022-10-04T09:20:33.448Z,1016.71
2022-10-04T09:21:16.543Z,1016.60
2022-10-04T09:22:08.945Z,1016.64
2022-10-04T09:23:08.801Z,1016.66
2022-10-04T09:24:08.709Z,1016.63
2022-10-04T09:25:08.703Z,1016.63
2022-10-04T09:26:08.694Z,1016.63
2022-10-04T09:27:08.703Z,1016.62
2022-10-04T09:28:08.730Z,1016.65
2022-10-04T09:29:08.651Z,1016.64
2022-10-04T09:30:08.636Z,1016.61
2022-10-04T09:31:08.698Z,1016.69
2022-10-04T09:32:08.627Z,1016.66
2022-10-04T09:33:08.687Z,1016.68
2022-10-04T09:34:08.666Z,1016.61
2022-10-04T09:35:08.595Z,1016.62
2022-10-04T09:36:08.641Z,1016.65
2022-10-04T09:37:08.651Z,1016.68
2022-10-04T09:38:08.554Z,1016.69
2022-10-04T09:39:28.976Z,1016.66
2022-10-04T09:40:09.542Z,1016.67
2022-10-04T09:41:08.519Z,1016.70
2022-10-04T09:42:08.535Z,1016.71
2022-10-04T09:43:08.506Z,1016.67
2022-10-04T09:44:08.496Z,1016.67
2022-10-04T09:45:08.491Z,1016.62
2022-10-04T09:46:08.570Z,1016.66
2022-10-04T09:47:08.455Z,1016.61
2022-10-04T09:48:08.448Z,1016.63
2022-10-04T09:49:08.452Z,1016.64
2022-10-04T09:50:08.436Z,1016.62
2022-10-04T09:51:08.466Z,1016.63
2022-10-04T09:52:15.511Z,1016.64
2022-10-04T09:53:08.396Z,1016.66
2022-10-04T09:54:08.380Z,1016.61
2022-10-04T09:55:08.391Z,1016.64
2022-10-04T09:56:08.369Z,1016.65
2022-10-04T09:57:08.368Z,1016.61
2022-10-04T09:58:08.370Z,1016.66
2022-10-04T09:59:08.338Z,1016.62
2022-10-04T10:00:08.335Z,1016.57
2022-10-04T10:01:08.327Z,1016.59
2022-10-04T10:02:08.377Z,1016.51
2022-10-04T10:03:11.083Z,1016.49
2022-10-04T10:04:09.284Z,1016.47
2022-10-04T10:05:08.267Z,1016.47
2022-10-04T10:06:08.273Z,1016.48
2022-10-04T10:07:08.246Z,1016.46
2022-10-04T10:08:08.243Z,1016.49
2022-10-04T10:09:08.224Z,1016.46
2022-10-04T10:10:08.211Z,1016.55
2022-10-04T10:11:08.229Z,1016.55
2022-10-04T10:12:08.189Z,1016.53
2022-10-04T10:13:08.183Z,1016.65
2022-10-04T10:14:08.165Z,1016.62
2022-10-04T10:15:08.159Z,1016.60
2022-10-04T10:16:08.190Z,1016.59
2022-10-04T10:17:08.159Z,1016.58
2022-10-04T10:18:08.128Z,1016.61
2022-10-04T10:19:08.120Z,1016.65
2022-10-04T10:20:08.132Z,1016.59
2022-10-04T10:21:08.101Z,1016.60
2022-10-04T10:22:08.103Z,1016.64
2022-10-04T10:23:08.141Z,1016.63
2022-10-04T10:24:08.089Z,1016.64
2022-10-04T10:25:08.053Z,1016.64
2022-10-04T10:26:08.045Z,1016.62
2022-10-04T10:27:08.023Z,1016.58
2022-10-04T10:28:08.090Z,1016.62
2022-10-04T10:29:08.017Z,1016.63
2022-10-04T10:30:08.002Z,1016.63
2022-10-04T10:31:08.059Z,1016.57
2022-10-04T10:32:07.982Z,1016.52
2022-10-04T10:33:07.961Z,1016.57
2022-10-04T10:34:07.951Z,1016.57
2022-10-04T10:35:07.974Z,1016.55
2022-10-04T10:36:07.927Z,1016.58
2022-10-04T10:37:07.916Z,1016.60
2022-10-04T10:38:07.912Z,1016.61
2022-10-04T10:39:07.915Z,1016.61
2022-10-04T10:40:07.907Z,1016.62
2022-10-04T10:41:07.887Z,1016.63
2022-10-04T10:42:07.881Z,1016.69
2022-10-04T10:43:07.868Z,1016.69
2022-10-04T10:44:07.842Z,1016.63
2022-10-04T10:45:07.839Z,1016.64
2022-10-04T10:46:07.917Z,1016.60
2022-10-04T10:47:07.817Z,1016.59
2022-10-04T10:48:07.794Z,1016.63
2022-10-04T10:49:07.856Z,1016.59
2022-10-04T10:50:07.795Z,1016.61
2022-10-04T10:51:07.772Z,1016.56
2022-10-04T10:52:07.755Z,1016.62
2022-10-04T10:53:07.754Z,1016.57
2022-10-04T10:54:07.742Z,1016.60
2022-10-04T10:55:07.731Z,1016.62
2022-10-04T10:56:07.737Z,1016.61
2022-10-04T10:57:07.736Z,1016.59
2022-10-04T10:58:07.694Z,1016.58
2022-10-04T10:59:07.686Z,1016.61
2022-10-04T11:00:07.677Z,1016.61
2022-10-04T11:01:07.659Z,1016.61
2022-10-04T11:02:07.811Z,1016.60
2022-10-04T11:03:13.693Z,1016.62
2022-10-04T11:04:07.637Z,1016.60
2022-10-04T11:05:07.636Z,1016.56
2022-10-04T11:06:07.613Z,1016.58
2022-10-04T11:07:07.601Z,1016.59
2022-10-04T11:08:07.589Z,1016.60
2022-10-04T11:09:07.572Z,1016.62
2022-10-04T11:10:07.567Z,1016.56
2022-10-04T11:11:07.561Z,1016.55
2022-10-04T11:12:07.579Z,1016.56
2022-10-04T11:13:07.527Z,1016.63
2022-10-04T11:14:07.549Z,1016.61
2022-10-04T11:15:07.514Z,1016.59
2022-10-04T11:16:07.561Z,1016.56
2022-10-04T11:17:07.504Z,1016.58
2022-10-04T11:18:07.497Z,1016.62
2022-10-04T11:19:07.466Z,1016.66
2022-10-04T11:20:07.449Z,1016.72
2022-10-04T11:21:07.439Z,1016.73
2022-10-04T11:22:07.507Z,1016.74
2022-10-04T11:23:07.442Z,1016.69
2022-10-04T11:24:07.434Z,1016.64
2022-10-04T11:25:07.412Z,1016.64
2022-10-04T11:26:07.401Z,1016.61
2022-10-04T11:27:07.388Z,1016.58
2022-10-04T11:28:07.470Z,1016.59
2022-10-04T11:29:07.374Z,1016.59
2022-10-04T11:30:07.367Z,1016.53
2022-10-04T11:31:07.421Z,1016.49
2022-10-04T11:32:07.339Z,1016.46
2022-10-04T11:33:07.322Z,1016.51
2022-10-04T11:34:07.313Z,1016.47
2022-10-04T11:35:07.304Z,1016.46
2022-10-04T11:36:07.287Z,1016.52
2022-10-04T11:37:07.287Z,1016.45
2022-10-04T11:38:07.262Z,1016.46
2022-10-04T11:39:07.263Z,1016.41
2022-10-04T11:40:07.242Z,1016.47
2022-10-04T11:41:07.245Z,1016.42
2022-10-04T11:42:07.219Z,1016.40
2022-10-04T11:43:07.216Z,1016.36
2022-10-04T11:44:07.242Z,1016.38
2022-10-04T11:45:07.187Z,1016.37
2022-10-04T11:46:10.685Z,1016.41
2022-10-04T11:47:07.244Z,1016.40
2022-10-04T11:48:07.165Z,1016.44
2022-10-04T11:49:07.149Z,1016.44
2022-10-04T11:50:07.148Z,1016.39
2022-10-04T11:51:07.126Z,1016.38
2022-10-04T11:52:07.107Z,1016.34
2022-10-04T11:53:07.110Z,1016.31
2022-10-04T11:54:07.113Z,1016.33
2022-10-04T11:55:07.080Z,1016.32
2022-10-04T11:56:07.099Z,1016.30
2022-10-04T11:57:07.065Z,1016.28
2022-10-04T11:58:11.722Z,1016.29
2022-10-04T11:59:08.033Z,1016.27
2022-10-04T12:00:07.045Z,1016.26
2022-10-04T12:01:07.013Z,1016.25
2022-10-04T12:02:07.061Z,1016.23
2022-10-04T12:03:07.073Z,1016.30
2022-10-04T12:04:07.186Z,1016.33
2022-10-04T12:05:06.980Z,1016.33